Time;durP1;ratioP1;P1;durP2;ratioP2;P2;SDS_P1;SDS_P2;PMS_P1;PMS_P2;Temp;Humidity;BMP_temperature;BMP_pressure;BME280_temperature;BME280_humidity;BME280_pressure;Samples;Min_cycle;Max_cycle;Signal;HPM_P1;HPM_P2
2023/08/31 00:00:35;;;;;;;13.57;9.63;;;;;;;13.69;100.00;99885.25;5096220;28;20215;-83
2023/08/31 00:03:02;;;;;;;10.07;8.30;;;;;;;13.65;100.00;99894.53;5094925;28;20242;-82
2023/08/31 00:05:30;;;;;;;9.77;8.57;;;;;;;13.63;100.00;99898.31;5096992;28;20207;-82
2023/08/31 00:07:56;;;;;;;9.37;8.33;;;;;;;13.61;100.00;99898.47;5085937;28;20216;-82
2023/08/31 00:10:23;;;;;;;8.73;7.83;;;;;;;13.59;100.00;99897.75;5096698;28;20209;-82
2023/08/31 00:12:51;;;;;;;8.67;7.77;;;;;;;13.56;100.00;99892.66;5096865;28;20208;-83
2023/08/31 00:15:18;;;;;;;9.10;7.00;;;;;;;13.54;100.00;99889.28;5096875;28;20228;-84
2023/08/31 00:17:44;;;;;;;10.37;8.40;;;;;;;13.53;100.00;99891.09;5088916;28;20242;-84
2023/08/31 00:20:12;;;;;;;8.30;7.33;;;;;;;13.51;100.00;99897.56;5092152;28;20211;-84
2023/08/31 00:22:39;;;;;;;9.73;7.60;;;;;;;13.51;100.00;99897.56;5095622;28;20201;-83
2023/08/31 00:25:08;;;;;;;8.83;7.80;;;;;;;13.51;100.00;99900.25;5095522;28;20204;-83
2023/08/31 00:27:36;;;;;;;8.93;7.50;;;;;;;13.50;100.00;99902.06;5093834;28;20204;-82
2023/08/31 00:30:07;;;;;;;9.53;7.50;;;;;;;13.49;100.00;99903.06;5095837;28;20201;-82
2023/08/31 00:32:34;;;;;;;8.73;7.73;;;;;;;13.48;100.00;99900.50;5094783;28;20205;-83
2023/08/31 00:35:00;;;;;;;7.97;7.17;;;;;;;13.45;100.00;99898.09;5096026;28;20208;-82
2023/08/31 00:37:27;;;;;;;10.80;8.70;;;;;;;13.42;100.00;99893.88;5095115;28;20200;-82
2023/08/31 00:39:54;;;;;;;11.40;9.20;;;;;;;13.39;100.00;99899.50;5093374;28;20216;-83
2023/08/31 00:42:21;;;;;;;9.67;8.50;;;;;;;13.35;100.00;99897.22;5089452;28;20581;-82
2023/08/31 00:44:48;;;;;;;9.70;8.47;;;;;;;13.32;100.00;99897.47;5095384;28;20225;-82
2023/08/31 00:47:17;;;;;;;11.33;9.13;;;;;;;13.31;100.00;99896.63;5095059;28;20224;-83
2023/08/31 00:49:43;;;;;;;10.97;9.80;;;;;;;13.30;100.00;99896.75;5095429;28;20232;-82
2023/08/31 00:52:10;;;;;;;16.83;10.23;;;;;;;13.27;100.00;99902.38;5095627;28;20207;-83
2023/08/31 00:54:37;;;;;;;11.70;10.20;;;;;;;13.24;100.00;99900.81;5096252;28;20208;-82
2023/08/31 00:57:04;;;;;;;12.13;10.37;;;;;;;13.23;100.00;99903.63;5095363;28;20219;-84
2023/08/31 00:59:31;;;;;;;12.90;10.23;;;;;;;13.21;100.00;99901.09;5095129;28;20301;-83
2023/08/31 01:02:04;;;;;;;14.47;11.83;;;;;;;13.19;100.00;99909.25;5095740;28;20204;-83
2023/08/31 01:04:47;;;;;;;12.90;10.97;;;;;;;13.17;100.00;99897.81;5095589;28;20192;-83
2023/08/31 01:07:24;;;;;;;15.67;10.77;;;;;;;13.19;100.00;99903.03;5095260;28;20241;-82
2023/08/31 01:09:58;;;;;;;12.57;10.40;;;;;;;13.17;100.00;99900.50;5094883;28;20217;-84
2023/08/31 01:12:33;;;;;;;12.93;10.60;;;;;;;13.14;100.00;99900.72;5095113;28;20199;-83
2023/08/31 01:15:07;;;;;;;13.17;10.50;;;;;;;13.10;100.00;99896.59;5094926;28;20207;-84
2023/08/31 01:17:35;;;;;;;11.77;10.30;;;;;;;13.10;100.00;99898.44;5094362;28;20263;-82
2023/08/31 01:20:06;;;;;;;14.90;10.47;;;;;;;13.08;100.00;99892.38;5094413;28;20246;-83
2023/08/31 01:22:40;;;;;;;11.00;9.87;;;;;;;13.07;100.00;99910.25;5091381;28;20295;-83
2023/08/31 01:25:09;;;;;;;12.83;11.03;;;;;;;13.07;100.00;99910.25;5084465;28;20205;-83
2023/08/31 01:27:36;;;;;;;11.43;9.17;;;;;;;13.05;100.00;99906.88;5094442;28;20570;-84
2023/08/31 01:30:03;;;;;;;12.00;10.37;;;;;;;13.04;100.00;99901.66;5094117;28;20235;-82
2023/08/31 01:32:30;;;;;;;12.23;10.30;;;;;;;13.00;100.00;99909.06;5094291;28;20212;-82
2023/08/31 01:34:57;;;;;;;15.03;10.23;;;;;;;12.98;100.00;99904.84;5093134;28;20196;-82
2023/08/31 01:37:30;;;;;;;12.07;9.63;;;;;;;12.95;100.00;99908.63;5094179;28;20220;-81
2023/08/31 01:40:00;;;;;;;14.80;10.00;;;;;;;12.95;100.00;99911.28;5093717;28;20220;-82
2023/08/31 01:42:29;;;;;;;12.73;9.20;;;;;;;12.92;100.00;99916.88;5094673;28;20538;-82
2023/08/31 01:44:57;;;;;;;15.37;11.27;;;;;;;12.94;100.00;99919.44;5083461;28;20204;-80
2023/08/31 01:47:25;;;;;;;11.67;9.80;;;;;;;12.94;100.00;99924.78;5092416;28;20204;-82
2023/08/31 01:49:51;;;;;;;11.43;9.60;;;;;;;12.92;100.00;99919.56;5095072;28;20257;-82
2023/08/31 01:52:18;;;;;;;10.97;8.97;;;;;;;12.95;100.00;99919.31;5094984;28;20204;-82
2023/08/31 01:54:44;;;;;;;14.73;10.43;;;;;;;12.90;100.00;99924.19;5095906;28;20577;-82
2023/08/31 01:57:11;;;;;;;13.90;10.13;;;;;;;12.87;100.00;99924.47;5095436;28;20224;-82
2023/08/31 01:59:39;;;;;;;11.70;9.83;;;;;;;12.84;100.00;99938.09;5095533;28;20230;-84
2023/08/31 02:02:05;;;;;;;13.97;10.40;;;;;;;12.82;100.00;99937.34;5095357;28;20214;-83
2023/08/31 02:04:32;;;;;;;13.30;9.87;;;;;;;12.81;100.00;99941.00;5093951;28;20203;-83
2023/08/31 02:06:58;;;;;;;12.37;9.57;;;;;;;12.79;100.00;99937.59;5094403;28;20200;-83
2023/08/31 02:09:25;;;;;;;13.33;10.87;;;;;;;12.76;100.00;99940.53;5087734;28;20245;-82
2023/08/31 02:11:51;;;;;;;14.17;11.13;;;;;;;12.77;100.00;99934.22;5090011;28;20291;-84
2023/08/31 02:14:18;;;;;;;12.60;9.73;;;;;;;12.77;100.00;99951.09;5084655;28;20665;-82
2023/08/31 02:16:45;;;;;;;13.77;10.87;;;;;;;12.74;100.00;99948.69;5090668;28;20311;-83
2023/08/31 02:19:12;;;;;;;13.70;10.97;;;;;;;12.74;100.00;99946.00;5085191;28;20224;-83
2023/08/31 02:21:38;;;;;;;16.00;11.90;;;;;;;12.72;100.00;99957.81;5093650;28;20200;-83
2023/08/31 02:24:06;;;;;;;13.17;10.30;;;;;;;12.70;100.00;99959.78;5090909;28;20196;-82
2023/08/31 02:26:32;;;;;;;15.37;10.80;;;;;;;12.69;100.00;99960.75;5094021;28;20196;-83
2023/08/31 02:28:59;;;;;;;12.73;10.93;;;;;;;12.70;100.00;99967.78;5093102;28;20227;-82
2023/08/31 02:31:25;;;;;;;15.87;11.20;;;;;;;12.67;100.00;99962.69;5093197;28;20207;-83
2023/08/31 02:33:53;;;;;;;13.17;10.50;;;;;;;12.66;100.00;99961.00;5093812;28;20301;-83
2023/08/31 02:36:21;;;;;;;15.83;11.03;;;;;;;12.65;100.00;99960.16;5093186;28;20228;-82
2023/08/31 02:38:49;;;;;;;13.83;10.27;;;;;;;12.66;100.00;99959.16;5092007;28;20225;-83
2023/08/31 02:41:16;;;;;;;16.43;10.63;;;;;;;12.64;100.00;99960.28;5090340;28;20214;-84
2023/08/31 02:43:42;;;;;;;13.67;10.70;;;;;;;12.66;100.00;99967.19;5090980;28;20205;-84
2023/08/31 02:46:09;;;;;;;17.70;11.77;;;;;;;12.63;100.00;99964.75;5093466;28;20196;-83
2023/08/31 02:48:35;;;;;;;17.87;10.87;;;;;;;12.61;100.00;99963.19;5094239;28;20224;-84
2023/08/31 02:51:03;;;;;;;15.07;10.63;;;;;;;12.62;100.00;99956.88;5095430;28;20215;-83
2023/08/31 02:53:30;;;;;;;13.73;10.97;;;;;;;12.63;100.00;99959.41;5088002;28;20300;-83
2023/08/31 02:55:56;;;;;;;14.43;10.53;;;;;;;12.63;100.00;99958.56;5094925;28;20208;-83
2023/08/31 02:58:23;;;;;;;16.20;11.43;;;;;;;12.67;100.00;99957.34;5095184;28;20220;-82
2023/08/31 03:00:50;;;;;;;13.47;10.53;;;;;;;12.66;100.00;99963.66;5094963;28;20214;-82
2023/08/31 03:03:16;;;;;;;13.10;10.50;;;;;;;12.64;100.00;99960.28;5095583;28;20769;-83
2023/08/31 03:05:43;;;;;;;15.10;10.20;;;;;;;12.65;100.00;99959.28;5096306;28;20208;-82
2023/08/31 03:08:11;;;;;;;14.63;10.17;;;;;;;12.62;100.00;99955.03;5095167;28;20232;-83
2023/08/31 03:10:38;;;;;;;12.73;9.97;;;;;;;12.63;100.00;99955.91;5095823;28;20207;-83
2023/08/31 03:13:05;;;;;;;12.83;9.83;;;;;;;12.60;100.00;99958.81;5096224;28;20211;-83
2023/08/31 03:15:33;;;;;;;14.17;10.40;;;;;;;12.59;100.00;99959.78;5095430;28;20227;-83
2023/08/31 03:18:00;;;;;;;12.43;9.50;;;;;;;12.60;100.00;99958.81;5095314;28;20228;-83
2023/08/31 03:20:26;;;;;;;12.30;9.87;;;;;;;12.59;100.00;99952.63;5091506;28;20200;-83
2023/08/31 03:22:53;;;;;;;12.63;9.33;;;;;;;12.60;100.00;99953.47;5095297;28;20200;-82
2023/08/31 03:25:20;;;;;;;13.17;8.80;;;;;;;12.59;100.00;99962.47;5089458;28;20219;-83
2023/08/31 03:27:47;;;;;;;14.83;9.67;;;;;;;12.61;100.00;99955.16;5093119;28;20203;-83
2023/08/31 03:30:14;;;;;;;11.90;9.13;;;;;;;12.61;100.00;99947.16;5094059;28;20204;-84
2023/08/31 03:32:40;;;;;;;13.40;9.97;;;;;;;12.61;100.00;99961.38;5095421;28;20234;-83
2023/08/31 03:35:08;;;;;;;11.13;9.27;;;;;;;12.60;100.00;99956.16;5094112;28;20204;-83
2023/08/31 03:37:34;;;;;;;11.67;9.07;;;;;;;12.59;100.00;99957.13;5094314;28;20769;-83
2023/08/31 03:40:01;;;;;;;12.63;8.70;;;;;;;12.59;100.00;99971.31;5096530;28;20853;-83
2023/08/31 03:42:29;;;;;;;19.07;9.57;;;;;;;12.57;100.00;99951.06;5094694;28;20215;-83
2023/08/31 03:44:55;;;;;;;11.50;9.40;;;;;;;12.58;100.00;99961.59;5094857;28;20254;-83
2023/08/31 03:47:21;;;;;;;12.43;8.73;;;;;;;12.57;100.00;99959.06;5094384;28;20196;-82
2023/08/31 03:49:48;;;;;;;10.33;8.03;;;;;;;12.59;100.00;99959.78;5094054;28;20233;-84
2023/08/31 03:52:14;;;;;;;14.20;9.40;;;;;;;12.58;100.00;99966.09;5094818;28;20203;-83
2023/08/31 03:54:41;;;;;;;11.17;8.57;;;;;;;12.59;100.00;99973.16;5094043;28;20204;-83
2023/08/31 03:57:07;;;;;;;10.77;8.57;;;;;;;12.57;100.00;99972.41;5090937;28;20229;-83
2023/08/31 03:59:35;;;;;;;13.13;8.60;;;;;;;12.57;100.00;99975.94;5089331;28;20234;-84
2023/08/31 04:02:02;;;;;;;11.43;8.57;;;;;;;12.55;100.00;99972.53;5090774;28;20206;-82
2023/08/31 04:04:28;;;;;;;12.53;8.97;;;;;;;12.54;100.00;99996.75;5093578;28;20204;-83
2023/08/31 04:06:54;;;;;;;14.30;9.10;;;;;;;12.51;100.00;99998.69;5094098;28;20203;-84
2023/08/31 04:09:21;;;;;;;11.50;8.77;;;;;;;12.50;100.00;99988.97;5094716;28;20235;-83
2023/08/31 04:11:48;;;;;;;10.60;8.27;;;;;;;12.50;100.00;99998.81;5093457;28;20576;-83
2023/08/31 04:14:14;;;;;;;12.17;8.43;;;;;;;12.49;100.00;100005.97;5086154;28;20207;-82
2023/08/31 04:16:42;;;;;;;14.87;9.50;;;;;;;12.49;100.00;100005.97;5089955;28;20223;-83
2023/08/31 04:19:09;;;;;;;12.23;9.47;;;;;;;12.49;100.00;100008.63;5091871;28;20231;-83
2023/08/31 04:21:36;;;;;;;14.97;9.83;;;;;;;12.51;100.00;100020.06;5093203;28;20581;-83
2023/08/31 04:24:02;;;;;;;16.63;10.50;;;;;;;12.52;100.00;100020.91;5093878;28;20518;-82
2023/08/31 04:26:29;;;;;;;16.50;10.20;;;;;;;12.49;100.00;100013.97;5090125;28;20682;-82
2023/08/31 04:28:56;;;;;;;15.23;10.43;;;;;;;12.51;100.00;100009.38;5094393;28;20314;-83
2023/08/31 04:31:22;;;;;;;13.83;10.83;;;;;;;12.49;100.00;100007.78;5089897;28;20239;-83
2023/08/31 04:33:53;;;;;;;15.20;9.97;;;;;;;12.50;100.00;100004.16;5091121;28;20255;-83
2023/08/31 04:36:20;;;;;;;15.53;10.27;;;;;;;12.49;100.00;100002.44;5086342;28;20213;-83
2023/08/31 04:38:46;;;;;;;15.10;10.50;;;;;;;12.49;100.00;100003.28;5089518;28;20231;-83
2023/08/31 04:41:12;;;;;;;14.23;10.40;;;;;;;12.49;100.00;100016.66;5093580;28;20222;-82
2023/08/31 04:43:39;;;;;;;16.07;10.37;;;;;;;12.49;100.00;100015.81;5092872;28;20207;-83
2023/08/31 04:46:06;;;;;;;14.67;10.27;;;;;;;12.48;100.00;100024.78;5099914;28;20203;-82
2023/08/31 04:48:32;;;;;;;16.70;11.13;;;;;;;12.48;100.00;100019.44;5091366;28;20224;-82
2023/08/31 04:51:00;;;;;;;14.80;11.10;;;;;;;12.45;100.00;100023.22;5088555;28;20275;-82
2023/08/31 04:53:27;;;;;;;17.70;11.50;;;;;;;12.45;100.00;100031.22;5089686;28;20200;-81
2023/08/31 04:55:54;;;;;;;16.37;10.57;;;;;;;12.43;100.00;100025.16;5098591;28;20216;-81
2023/08/31 04:58:20;;;;;;;17.80;12.33;;;;;;;12.43;100.00;100021.63;5093270;28;20237;-81
2023/08/31 05:00:47;;;;;;;16.93;12.30;;;;;;;12.40;100.00;100030.72;5095544;28;20204;-81
2023/08/31 05:03:14;;;;;;;21.73;12.07;;;;;;;12.39;100.00;100036.19;5094482;28;20256;-82
2023/08/31 05:05:41;;;;;;;19.33;12.40;;;;;;;12.40;100.00;100041.41;5095621;28;20208;-81
2023/08/31 05:08:09;;;;;;;21.17;12.97;;;;;;;12.36;100.00;100034.63;5092565;28;20217;-81
2023/08/31 05:10:36;;;;;;;15.30;12.73;;;;;;;12.35;100.00;100037.44;5090023;28;20223;-83
2023/08/31 05:13:04;;;;;;;18.90;13.23;;;;;;;12.34;100.00;100039.25;5093080;28;20692;-81
2023/08/31 05:15:30;;;;;;;17.80;13.47;;;;;;;12.34;100.00;100041.94;5089524;28;20212;-81
2023/08/31 05:17:57;;;;;;;18.83;13.63;;;;;;;12.36;100.00;100049.81;5093985;28;20231;-81
2023/08/31 05:20:23;;;;;;;16.93;13.40;;;;;;;12.38;100.00;100051.38;5093339;28;20204;-81
2023/08/31 05:22:50;;;;;;;18.30;13.50;;;;;;;12.41;100.00;100060.97;5092897;28;20257;-81
2023/08/31 05:25:17;;;;;;;21.37;14.80;;;;;;;12.43;100.00;100056.34;5095804;28;20204;-81
2023/08/31 05:27:44;;;;;;;17.33;13.47;;;;;;;12.44;100.00;100058.06;5099720;28;20212;-81
2023/08/31 05:30:11;;;;;;;18.10;13.63;;;;;;;12.47;100.00;100063.16;5099862;28;20214;-82
2023/08/31 05:32:38;;;;;;;21.47;15.13;;;;;;;12.51;100.00;100061.94;5097511;28;20242;-84
2023/08/31 05:35:05;;;;;;;21.13;14.03;;;;;;;12.57;100.00;100064.09;5098588;28;20223;-84
2023/08/31 05:37:35;;;;;;;17.37;13.53;;;;;;;12.64;100.00;100064.47;5098042;28;20225;-84
2023/08/31 05:40:05;;;;;;;21.67;14.33;;;;;;;12.69;100.00;100070.28;5095385;28;20224;-84
2023/08/31 05:42:33;;;;;;;17.20;13.40;;;;;;;12.77;100.00;100070.50;5094416;28;20239;-84
2023/08/31 05:45:00;;;;;;;17.17;13.87;;;;;;;12.83;100.00;100072.66;5094398;28;20215;-84
2023/08/31 05:47:26;;;;;;;17.77;13.63;;;;;;;12.89;100.00;100063.31;5094614;28;20192;-83
2023/08/31 05:49:53;;;;;;;18.03;13.73;;;;;;;12.94;100.00;100069.94;5094141;28;20861;-84
2023/08/31 05:52:19;;;;;;;19.37;13.50;;;;;;;13.02;100.00;100058.66;5094033;28;20204;-84
2023/08/31 05:54:46;;;;;;;18.07;13.93;;;;;;;13.09;100.00;100063.34;5093477;28;20192;-83
2023/08/31 05:57:12;;;;;;;19.07;13.07;;;;;;;13.14;100.00;100066.50;5094608;28;20240;-84
2023/08/31 05:59:40;;;;;;;17.83;13.30;;;;;;;13.20;100.00;100063.34;5093584;28;20213;-83
2023/08/31 06:02:08;;;;;;;16.27;12.10;;;;;;;13.29;99.67;100075.09;5094063;28;20209;-84
2023/08/31 06:04:35;;;;;;;14.60;12.43;;;;;;;13.38;98.28;100074.31;5094103;28;20208;-84
2023/08/31 06:07:01;;;;;;;15.40;12.97;;;;;;;13.41;97.21;100076.75;5091236;28;20200;-83
2023/08/31 06:09:28;;;;;;;14.07;12.00;;;;;;;13.45;96.11;100069.28;5088305;28;20213;-84
2023/08/31 06:11:54;;;;;;;16.03;12.37;;;;;;;13.53;95.87;100082.88;5093056;28;20303;-84
2023/08/31 06:14:21;;;;;;;13.13;11.73;;;;;;;13.60;94.80;100085.91;5086061;28;20255;-83
2023/08/31 06:16:49;;;;;;;12.93;11.63;;;;;;;13.64;92.33;100073.94;5093862;28;20258;-84
2023/08/31 06:19:16;;;;;;;18.13;12.93;;;;;;;13.67;92.90;100079.88;5093947;28;20228;-84
2023/08/31 06:21:42;;;;;;;14.13;12.63;;;;;;;13.71;92.66;100084.00;5093442;28;20683;-84
2023/08/31 06:24:10;;;;;;;15.70;14.13;;;;;;;13.80;92.49;100083.19;5093853;28;20290;-83
2023/08/31 06:26:37;;;;;;;16.13;12.97;;;;;;;13.86;91.79;100073.78;5093717;28;20225;-84
2023/08/31 06:29:04;;;;;;;14.73;12.93;;;;;;;13.98;91.48;100080.75;5093457;28;20232;-83
2023/08/31 06:31:30;;;;;;;14.53;13.03;;;;;;;14.04;90.75;100080.25;5093228;28;20209;-84
2023/08/31 06:33:58;;;;;;;14.90;12.20;;;;;;;14.16;90.88;100084.50;5093450;28;20291;-84
2023/08/31 06:36:25;;;;;;;13.20;11.70;;;;;;;14.29;90.27;100083.47;5093106;28;20196;-84
2023/08/31 06:38:51;;;;;;;13.30;12.03;;;;;;;14.39;89.13;100084.34;5091615;28;20256;-84
2023/08/31 06:41:18;;;;;;;14.07;12.57;;;;;;;14.39;87.61;100087.88;5084155;28;20204;-84
2023/08/31 06:43:45;;;;;;;12.67;11.40;;;;;;;14.44;87.77;100085.69;5092260;28;20674;-84
2023/08/31 06:46:12;;;;;;;13.60;12.20;;;;;;;14.48;88.29;100086.25;5089299;28;20227;-83
2023/08/31 06:48:38;;;;;;;13.93;11.87;;;;;;;14.56;88.70;100075.69;5091439;28;20227;-84
2023/08/31 06:51:06;;;;;;;12.00;10.80;;;;;;;14.69;87.96;100078.16;5093546;28;20550;-84
2023/08/31 06:53:33;;;;;;;12.30;11.00;;;;;;;14.76;86.85;100081.94;5088283;28;20205;-84
2023/08/31 06:55:59;;;;;;;11.80;10.60;;;;;;;14.78;86.03;100079.97;5092206;28;20204;-84
2023/08/31 06:58:25;;;;;;;10.77;9.63;;;;;;;14.80;85.31;100084.22;5087600;28;20230;-84
2023/08/31 07:00:52;;;;;;;9.33;8.53;;;;;;;14.81;84.79;100085.06;5089368;28;20200;-85
2023/08/31 07:03:18;;;;;;;8.40;7.57;;;;;;;14.77;83.38;100084.50;5086325;28;20641;-84
2023/08/31 07:05:45;;;;;;;8.90;8.00;;;;;;;14.73;83.04;100096.47;5090389;28;20213;-83
2023/08/31 07:08:13;;;;;;;8.37;7.13;;;;;;;14.76;81.41;100087.31;5090104;28;20220;-84
2023/08/31 07:10:39;;;;;;;8.63;7.30;;;;;;;14.69;82.04;100075.47;5090494;28;20200;-84
2023/08/31 07:13:06;;;;;;;7.97;7.17;;;;;;;14.65;82.14;100088.28;5092128;28;20205;-84
2023/08/31 07:15:32;;;;;;;7.83;6.40;;;;;;;14.63;81.79;100079.53;5091810;28;20224;-84
2023/08/31 07:17:59;;;;;;;7.37;6.77;;;;;;;14.64;82.71;100085.75;5092526;28;20687;-84
2023/08/31 07:20:26;;;;;;;7.33;6.60;;;;;;;14.63;83.14;100089.41;5090589;28;20204;-84
2023/08/31 07:22:52;;;;;;;7.20;6.60;;;;;;;14.70;84.08;100077.13;5087654;28;20204;-83
2023/08/31 07:25:20;;;;;;;6.10;5.50;;;;;;;14.77;82.87;100089.84;5092221;28;20197;-84
2023/08/31 07:27:47;;;;;;;6.17;5.60;;;;;;;14.85;81.36;100098.06;5100737;28;20206;-83
2023/08/31 07:30:14;;;;;;;6.80;5.63;;;;;;;14.90;80.78;100089.59;5091260;28;20220;-83
2023/08/31 07:32:40;;;;;;;6.90;6.03;;;;;;;14.95;80.95;100095.41;5088567;28;20279;-83
2023/08/31 07:35:09;;;;;;;7.53;5.97;;;;;;;15.01;79.71;100102.06;5095443;28;20200;-83
2023/08/31 07:37:37;;;;;;;6.03;5.53;;;;;;;15.09;79.29;100099.50;5104713;28;20224;-83
2023/08/31 07:40:08;;;;;;;6.87;6.13;;;;;;;15.13;78.44;100099.09;5096769;28;20221;-84
2023/08/31 07:42:36;;;;;;;7.03;6.43;;;;;;;15.17;78.54;100099.66;5096245;28;20192;-84
2023/08/31 07:45:02;;;;;;;6.37;5.70;;;;;;;15.23;78.33;100099.94;5096574;28;20581;-84
2023/08/31 07:47:29;;;;;;;5.73;5.23;;;;;;;15.22;78.54;100103.63;5087647;28;20204;-83
2023/08/31 07:49:55;;;;;;;5.33;4.93;;;;;;;15.24;78.41;100104.31;5095704;28;20306;-83
2023/08/31 07:52:22;;;;;;;5.93;5.33;;;;;;;15.24;78.36;100108.84;5096875;28;20663;-84
2023/08/31 07:54:49;;;;;;;6.03;5.53;;;;;;;15.24;77.67;100106.16;5095943;28;20204;-84
2023/08/31 07:57:15;;;;;;;5.97;5.27;;;;;;;15.32;77.97;100106.31;5087292;28;20210;-83
2023/08/31 07:59:48;;;;;;;6.83;5.67;;;;;;;15.43;77.84;100111.53;5096077;28;20224;-83
2023/08/31 08:02:16;;;;;;;5.73;5.23;;;;;;;15.53;78.40;100106.19;5097210;28;20188;-84
2023/08/31 08:04:42;;;;;;;5.47;4.97;;;;;;;15.62;77.43;100110.72;5096295;28;20205;-84
2023/08/31 08:07:14;;;;;;;5.87;5.03;;;;;;;15.72;77.50;100108.88;5095618;28;20242;-83
2023/08/31 08:09:40;;;;;;;5.53;4.97;;;;;;;15.74;76.65;100114.13;5095618;28;20221;-83
2023/08/31 08:12:08;;;;;;;5.53;5.03;;;;;;;15.73;76.37;100121.31;5097478;28;20288;-83
2023/08/31 08:14:34;;;;;;;5.40;4.90;;;;;;;15.74;76.32;100128.38;5095554;28;20199;-83
2023/08/31 08:17:03;;;;;;;4.73;4.00;;;;;;;15.81;76.88;100128.63;5099540;28;20575;-83
2023/08/31 08:19:29;;;;;;;4.17;3.77;;;;;;;15.93;76.62;100125.69;5096306;28;20878;-85
2023/08/31 08:21:56;;;;;;;4.53;4.13;;;;;;;16.06;75.63;100129.88;5099938;28;20221;-85
2023/08/31 08:24:25;;;;;;;4.27;3.90;;;;;;;16.22;73.57;100133.66;5098234;28;20208;-85
2023/08/31 08:26:51;;;;;;;4.97;3.90;;;;;;;16.18;71.97;100134.09;5095859;28;20653;-84
2023/08/31 08:29:18;;;;;;;4.70;4.20;;;;;;;16.21;72.24;100123.91;5095667;28;20221;-84
2023/08/31 08:31:44;;;;;;;4.67;3.83;;;;;;;16.23;70.97;100131.81;5095859;28;20214;-84
2023/08/31 08:34:12;;;;;;;4.73;3.83;;;;;;;16.25;71.44;100127.16;5097170;28;20208;-84
2023/08/31 08:36:39;;;;;;;4.63;4.00;;;;;;;16.26;71.65;100131.53;5096842;28;20292;-84
2023/08/31 08:39:05;;;;;;;4.77;4.00;;;;;;;16.30;71.38;100132.94;5096122;28;20705;-83
2023/08/31 08:41:34;;;;;;;4.00;3.60;;;;;;;16.32;71.88;100130.94;5099036;28;20202;-84
2023/08/31 08:44:03;;;;;;;7.43;5.00;;;;;;;16.33;72.10;100127.25;5102930;28;20227;-84
2023/08/31 08:46:32;;;;;;;5.03;3.97;;;;;;;16.39;71.92;100128.50;5104203;28;20213;-85
2023/08/31 08:49:02;;;;;;;5.13;3.63;;;;;;;16.40;71.52;100125.69;5103433;28;20215;-85
2023/08/31 08:51:31;;;;;;;9.03;4.20;;;;;;;16.47;72.24;100123.25;5103157;28;20218;-85
2023/08/31 08:54:00;;;;;;;5.07;3.57;;;;;;;16.49;70.67;100132.84;5103024;28;20209;-85
2023/08/31 08:56:27;;;;;;;4.10;3.70;;;;;;;16.56;70.39;100139.34;5102776;28;20203;-85
2023/08/31 08:58:54;;;;;;;3.70;3.37;;;;;;;16.64;70.42;100136.78;5094914;28;20255;-83
2023/08/31 09:01:22;;;;;;;3.90;2.80;;;;;;;16.71;69.97;100141.56;5083646;28;20207;-86
2023/08/31 09:03:49;;;;;;;3.40;3.10;;;;;;;16.86;70.65;100134.69;5098951;28;20657;-84
2023/08/31 09:06:16;;;;;;;4.43;3.33;;;;;;;17.00;70.72;100134.22;5103126;28;20273;-84
2023/08/31 09:08:44;;;;;;;4.00;3.30;;;;;;;17.19;69.53;100131.41;5102071;28;20233;-86
2023/08/31 09:11:20;;;;;;;4.93;3.10;;;;;;;17.29;68.03;100132.16;5102123;28;20208;-84
2023/08/31 09:13:47;;;;;;;3.10;2.50;;;;;;;17.35;68.84;100126.19;5101796;28;20637;-84
2023/08/31 09:16:24;;;;;;;3.90;2.60;;;;;;;17.34;67.37;100137.94;5099361;28;20205;-83
2023/08/31 09:18:52;;;;;;;2.97;2.53;;;;;;;17.36;66.38;100135.09;5078691;28;20229;-83
2023/08/31 09:21:19;;;;;;;4.70;2.67;;;;;;;17.37;67.13;100130.56;5074851;28;20272;-83
2023/08/31 09:23:48;;;;;;;2.53;2.10;;;;;;;17.41;67.07;100127.38;5089789;28;20215;-83
2023/08/31 09:26:15;;;;;;;3.53;3.00;;;;;;;17.42;66.96;100136.31;5094157;28;20262;-83
2023/08/31 09:28:43;;;;;;;2.83;2.53;;;;;;;17.48;66.64;100124.94;5094104;28;20854;-82
2023/08/31 09:31:09;;;;;;;3.67;2.70;;;;;;;17.51;66.37;100127.31;5094308;28;20606;-83
2023/08/31 09:33:36;;;;;;;2.90;2.60;;;;;;;17.52;65.70;100131.72;5094274;28;20208;-83
2023/08/31 09:36:03;;;;;;;3.00;2.67;;;;;;;17.55;66.11;100118.78;5094200;28;20211;-84
2023/08/31 09:38:30;;;;;;;2.70;2.50;;;;;;;17.54;64.92;100127.03;5093776;28;20228;-83
2023/08/31 09:41:04;;;;;;;2.70;2.50;;;;;;;17.57;65.24;100118.59;5093632;28;20207;-83
2023/08/31 09:43:31;;;;;;;2.63;2.37;;;;;;;17.55;65.07;100118.78;5094118;28;20192;-84
2023/08/31 09:45:59;;;;;;;4.27;2.73;;;;;;;17.57;65.83;100118.59;5094167;28;20200;-84
2023/08/31 09:48:27;;;;;;;2.13;1.97;;;;;;;17.62;65.59;100110.91;5094195;28;20229;-84
2023/08/31 09:50:55;;;;;;;2.60;2.20;;;;;;;17.63;66.08;100118.00;5094004;28;20205;-83
2023/08/31 09:53:24;;;;;;;3.00;2.10;;;;;;;17.60;64.94;100115.63;5094120;28;20676;-83
2023/08/31 09:55:53;;;;;;;2.13;2.00;;;;;;;17.61;66.03;100117.31;5093454;28;20200;-83
2023/08/31 09:58:22;;;;;;;2.63;2.43;;;;;;;17.64;67.04;100114.34;5093705;28;20231;-84
2023/08/31 10:00:50;;;;;;;2.80;2.37;;;;;;;17.72;66.69;100116.28;5093876;28;20209;-83
2023/08/31 10:03:17;;;;;;;4.80;3.20;;;;;;;17.77;65.68;100125.56;5093884;28;20202;-84
2023/08/31 10:05:45;;;;;;;3.87;2.17;;;;;;;17.83;65.90;100126.78;5096735;28;20225;-85
2023/08/31 10:08:12;;;;;;;3.97;2.20;;;;;;;17.93;65.88;100120.28;5100039;28;20234;-85
2023/08/31 10:10:40;;;;;;;4.27;2.20;;;;;;;17.98;65.45;100117.97;5099132;28;20229;-86
2023/08/31 10:13:07;;;;;;;3.10;1.90;;;;;;;18.07;64.81;100118.03;5099529;28;20220;-86
2023/08/31 10:15:36;;;;;;;2.17;1.97;;;;;;;18.11;64.26;100127.47;5100013;28;20209;-85
2023/08/31 10:18:05;;;;;;;3.47;1.90;;;;;;;18.13;64.91;100114.69;5099857;28;20290;-85
2023/08/31 10:20:33;;;;;;;5.53;2.10;;;;;;;18.11;62.72;100119.41;5099941;28;20208;-85
2023/08/31 10:23:03;;;;;;;4.37;1.90;;;;;;;18.09;64.61;100121.44;5099624;28;20569;-85
2023/08/31 10:26:03;;;;;;;2.67;2.13;;;;;;;18.15;64.55;100123.47;5100355;28;20199;-85
2023/08/31 10:28:29;;;;;;;3.27;1.90;;;;;;;18.15;64.18;100137.78;5100249;28;20693;-85
2023/08/31 10:31:05;;;;;;;2.83;1.77;;;;;;;18.16;64.72;100123.31;5101074;28;20615;-86
2023/08/31 10:33:33;;;;;;;2.03;1.70;;;;;;;18.21;64.28;100130.94;5100292;28;20212;-85
2023/08/31 10:36:00;;;;;;;3.27;2.37;;;;;;;18.27;65.05;100119.53;5099141;28;20577;-84
2023/08/31 10:38:30;;;;;;;2.70;1.83;;;;;;;18.34;65.01;100123.25;5100858;28;20236;-86
2023/08/31 10:41:02;;;;;;;4.47;2.70;;;;;;;18.37;64.34;100117.56;5100989;28;20204;-87
2023/08/31 10:43:43;;;;;;;3.63;2.33;;;;;;;18.41;64.50;100118.09;5100308;28;20578;-86
2023/08/31 10:46:17;;;;;;;3.23;2.63;;;;;;;18.40;63.92;100114.53;5101227;28;20198;-85
2023/08/31 10:48:51;;;;;;;2.60;2.40;;;;;;;18.30;62.60;100121.88;5101000;28;20221;-85
2023/08/31 10:51:20;;;;;;;2.67;2.40;;;;;;;18.26;61.70;100115.16;5099845;28;20213;-84
2023/08/31 10:53:47;;;;;;;2.67;2.47;;;;;;;18.22;62.73;100119.16;5095573;28;20214;-83
2023/08/31 10:56:13;;;;;;;3.07;2.30;;;;;;;18.26;63.20;100109.75;5094693;28;20208;-84
2023/08/31 10:58:40;;;;;;;3.07;2.30;;;;;;;18.32;62.36;100114.47;5094646;28;20237;-83
2023/08/31 11:01:06;;;;;;;3.27;2.20;;;;;;;18.34;61.85;100117.88;5095299;28;20217;-83
2023/08/31 11:04:00;;;;;;;3.93;2.67;;;;;;;18.41;62.48;100118.09;5094747;28;20322;-84
2023/08/31 11:06:29;;;;;;;2.80;2.13;;;;;;;18.50;62.10;100117.94;5094432;28;20197;-84
2023/08/31 11:08:56;;;;;;;2.60;2.37;;;;;;;18.53;60.45;100127.56;5098406;28;20223;-83
2023/08/31 11:11:24;;;;;;;3.50;2.33;;;;;;;18.53;60.30;100123.03;5098352;28;20666;-85
2023/08/31 11:13:58;;;;;;;4.37;2.30;;;;;;;18.55;60.48;100136.34;5098365;28;20202;-83
2023/08/31 11:16:24;;;;;;;3.47;2.30;;;;;;;18.53;59.75;100108.69;5097791;28;20213;-83
2023/08/31 11:18:52;;;;;;;3.23;2.67;;;;;;;18.49;58.69;100120.81;5103592;28;20230;-86